sensor_id;sensor_type;location;lat;lon;timestamp;P1;durP1;ratioP1;P2;durP2;ratioP2
58990;SDS011;44781;53.444;14.476;2023-07-13T00:01:53;4.10;;;2.50;;
58990;SDS011;44781;53.444;14.476;2023-07-13T00:04:21;5.00;;;2.70;;
58990;SDS011;44781;53.444;14.476;2023-07-13T00:06:49;5.50;;;3.00;;
58990;SDS011;44781;53.444;14.476;2023-07-13T00:09:17;4.10;;;2.70;;
58990;SDS011;44781;53.444;14.476;2023-07-13T00:11:45;5.20;;;2.70;;
58990;SDS011;44781;53.444;14.476;2023-07-13T00:14:16;4.70;;;2.60;;
58990;SDS011;44781;53.444;14.476;2023-07-13T00:16:43;6.40;;;3.10;;
58990;SDS011;44781;53.444;14.476;2023-07-13T00:19:10;6.70;;;2.80;;
58990;SDS011;44781;53.444;14.476;2023-07-13T00:21:39;8.00;;;3.00;;
58990;SDS011;44781;53.444;14.476;2023-07-13T00:24:08;5.00;;;3.00;;
58990;SDS011;44781;53.444;14.476;2023-07-13T00:26:39;5.80;;;2.90;;
58990;SDS011;44781;53.444;14.476;2023-07-13T00:29:07;4.80;;;2.70;;
58990;SDS011;44781;53.444;14.476;2023-07-13T00:31:35;5.10;;;2.90;;
58990;SDS011;44781;53.444;14.476;2023-07-13T00:34:04;4.40;;;2.40;;
58990;SDS011;44781;53.444;14.476;2023-07-13T00:36:31;5.30;;;2.40;;
58990;SDS011;44781;53.444;14.476;2023-07-13T00:38:58;5.30;;;2.60;;
58990;SDS011;44781;53.444;14.476;2023-07-13T00:41:25;8.30;;;3.10;;
58990;SDS011;44781;53.444;14.476;2023-07-13T00:43:52;4.60;;;2.80;;
58990;SDS011;44781;53.444;14.476;2023-07-13T00:46:20;5.80;;;3.20;;
58990;SDS011;44781;53.444;14.476;2023-07-13T00:48:51;5.50;;;3.30;;
58990;SDS011;44781;53.444;14.476;2023-07-13T00:51:22;7.90;;;2.90;;
58990;SDS011;44781;53.444;14.476;2023-07-13T00:53:53;5.30;;;2.70;;
58990;SDS011;44781;53.444;14.476;2023-07-13T00:56:23;5.10;;;2.70;;
58990;SDS011;44781;53.444;14.476;2023-07-13T00:58:50;5.80;;;3.10;;
58990;SDS011;44781;53.444;14.476;2023-07-13T01:01:18;4.90;;;2.80;;
58990;SDS011;44781;53.444;14.476;2023-07-13T01:03:45;4.90;;;2.80;;
58990;SDS011;44781;53.444;14.476;2023-07-13T01:06:13;4.60;;;2.70;;
58990;SDS011;44781;53.444;14.476;2023-07-13T01:08:40;4.50;;;3.10;;
58990;SDS011;44781;53.444;14.476;2023-07-13T01:11:07;4.20;;;2.60;;
58990;SDS011;44781;53.444;14.476;2023-07-13T01:13:34;5.40;;;3.00;;
58990;SDS011;44781;53.444;14.476;2023-07-13T01:16:03;5.80;;;2.90;;
58990;SDS011;44781;53.444;14.476;2023-07-13T01:18:51;5.40;;;3.20;;
58990;SDS011;44781;53.444;14.476;2023-07-13T01:21:18;6.80;;;3.50;;
58990;SDS011;44781;53.444;14.476;2023-07-13T01:23:45;6.70;;;3.50;;
58990;SDS011;44781;53.444;14.476;2023-07-13T01:26:12;7.60;;;3.40;;
58990;SDS011;44781;53.444;14.476;2023-07-13T01:28:39;6.00;;;3.00;;
58990;SDS011;44781;53.444;14.476;2023-07-13T01:31:08;5.30;;;3.10;;
58990;SDS011;44781;53.444;14.476;2023-07-13T01:33:37;4.70;;;2.90;;
58990;SDS011;44781;53.444;14.476;2023-07-13T01:36:06;6.90;;;3.10;;
58990;SDS011;44781;53.444;14.476;2023-07-13T01:38:35;5.40;;;3.40;;
58990;SDS011;44781;53.444;14.476;2023-07-13T01:41:03;5.50;;;3.00;;
58990;SDS011;44781;53.444;14.476;2023-07-13T01:43:30;5.10;;;2.90;;
58990;SDS011;44781;53.444;14.476;2023-07-13T01:45:57;5.90;;;3.40;;
58990;SDS011;44781;53.444;14.476;2023-07-13T01:48:23;4.90;;;2.80;;
58990;SDS011;44781;53.444;14.476;2023-07-13T01:50:50;5.40;;;2.90;;
58990;SDS011;44781;53.444;14.476;2023-07-13T01:53:17;7.40;;;3.00;;
58990;SDS011;44781;53.444;14.476;2023-07-13T01:55:44;5.20;;;3.10;;
58990;SDS011;44781;53.444;14.476;2023-07-13T01:58:11;5.10;;;3.00;;
58990;SDS011;44781;53.444;14.476;2023-07-13T02:00:39;5.80;;;3.30;;
58990;SDS011;44781;53.444;14.476;2023-07-13T02:03:06;6.90;;;3.00;;
58990;SDS011;44781;53.444;14.476;2023-07-13T02:05:33;5.50;;;3.30;;
58990;SDS011;44781;53.444;14.476;2023-07-13T02:08:00;7.40;;;3.30;;
58990;SDS011;44781;53.444;14.476;2023-07-13T02:10:27;5.40;;;3.10;;
58990;SDS011;44781;53.444;14.476;2023-07-13T02:12:55;6.30;;;2.70;;
58990;SDS011;44781;53.444;14.476;2023-07-13T02:15:22;5.00;;;2.90;;
58990;SDS011;44781;53.444;14.476;2023-07-13T02:17:48;5.90;;;2.70;;
58990;SDS011;44781;53.444;14.476;2023-07-13T02:20:18;6.80;;;3.10;;
58990;SDS011;44781;53.444;14.476;2023-07-13T02:22:45;5.00;;;2.90;;
58990;SDS011;44781;53.444;14.476;2023-07-13T02:25:12;5.60;;;2.80;;
58990;SDS011;44781;53.444;14.476;2023-07-13T02:27:40;4.60;;;2.80;;
58990;SDS011;44781;53.444;14.476;2023-07-13T02:30:08;5.30;;;2.80;;
58990;SDS011;44781;53.444;14.476;2023-07-13T02:35:05;5.70;;;2.90;;
58990;SDS011;44781;53.444;14.476;2023-07-13T02:37:32;6.40;;;2.90;;
58990;SDS011;44781;53.444;14.476;2023-07-13T02:39:59;5.00;;;2.50;;
58990;SDS011;44781;53.444;14.476;2023-07-13T02:42:26;3.70;;;2.40;;
58990;SDS011;44781;53.444;14.476;2023-07-13T02:44:53;5.30;;;2.60;;
58990;SDS011;44781;53.444;14.476;2023-07-13T02:47:20;5.10;;;2.70;;
58990;SDS011;44781;53.444;14.476;2023-07-13T02:49:47;4.20;;;2.60;;
58990;SDS011;44781;53.444;14.476;2023-07-13T02:52:14;5.90;;;2.70;;
58990;SDS011;44781;53.444;14.476;2023-07-13T02:54:42;6.30;;;3.10;;
58990;SDS011;44781;53.444;14.476;2023-07-13T02:57:09;10.80;;;3.40;;
58990;SDS011;44781;53.444;14.476;2023-07-13T02:59:36;6.40;;;2.90;;
58990;SDS011;44781;53.444;14.476;2023-07-13T03:02:03;4.70;;;2.60;;
58990;SDS011;44781;53.444;14.476;2023-07-13T03:04:30;4.20;;;2.40;;
58990;SDS011;44781;53.444;14.476;2023-07-13T03:06:58;4.90;;;2.60;;
58990;SDS011;44781;53.444;14.476;2023-07-13T03:09:28;4.90;;;2.70;;
58990;SDS011;44781;53.444;14.476;2023-07-13T03:11:56;5.60;;;2.80;;
58990;SDS011;44781;53.444;14.476;2023-07-13T03:14:28;6.00;;;3.10;;
58990;SDS011;44781;53.444;14.476;2023-07-13T03:16:55;6.40;;;2.60;;
58990;SDS011;44781;53.444;14.476;2023-07-13T03:19:24;4.50;;;2.60;;
58990;SDS011;44781;53.444;14.476;2023-07-13T03:21:51;5.70;;;2.70;;
58990;SDS011;44781;53.444;14.476;2023-07-13T03:24:18;5.40;;;2.80;;
58990;SDS011;44781;53.444;14.476;2023-07-13T03:26:45;5.40;;;2.50;;
58990;SDS011;44781;53.444;14.476;2023-07-13T03:29:12;5.70;;;3.30;;
58990;SDS011;44781;53.444;14.476;2023-07-13T03:31:39;7.20;;;3.00;;
58990;SDS011;44781;53.444;14.476;2023-07-13T03:34:06;6.80;;;2.80;;
58990;SDS011;44781;53.444;14.476;2023-07-13T03:36:33;9.00;;;3.40;;
58990;SDS011;44781;53.444;14.476;2023-07-13T03:39:04;11.80;;;3.40;;
58990;SDS011;44781;53.444;14.476;2023-07-13T03:41:43;11.50;;;3.30;;
58990;SDS011;44781;53.444;14.476;2023-07-13T03:44:11;8.20;;;3.00;;
58990;SDS011;44781;53.444;14.476;2023-07-13T03:46:38;6.80;;;3.10;;
58990;SDS011;44781;53.444;14.476;2023-07-13T03:49:06;6.50;;;2.90;;
58990;SDS011;44781;53.444;14.476;2023-07-13T03:51:33;7.10;;;2.80;;
58990;SDS011;44781;53.444;14.476;2023-07-13T03:54:00;6.20;;;2.70;;
58990;SDS011;44781;53.444;14.476;2023-07-13T03:56:29;5.90;;;2.70;;
58990;SDS011;44781;53.444;14.476;2023-07-13T03:58:57;5.80;;;2.70;;
58990;SDS011;44781;53.444;14.476;2023-07-13T04:01:24;5.40;;;2.50;;
58990;SDS011;44781;53.444;14.476;2023-07-13T04:03:52;6.60;;;2.60;;
58990;SDS011;44781;53.444;14.476;2023-07-13T04:06:25;5.90;;;2.70;;
58990;SDS011;44781;53.444;14.476;2023-07-13T04:08:54;6.60;;;2.70;;
58990;SDS011;44781;53.444;14.476;2023-07-13T04:11:24;5.30;;;2.90;;
58990;SDS011;44781;53.444;14.476;2023-07-13T04:13:52;5.80;;;3.00;;
58990;SDS011;44781;53.444;14.476;2023-07-13T04:16:19;5.90;;;2.70;;
58990;SDS011;44781;53.444;14.476;2023-07-13T04:18:47;7.50;;;3.30;;
58990;SDS011;44781;53.444;14.476;2023-07-13T04:21:14;4.50;;;2.50;;
58990;SDS011;44781;53.444;14.476;2023-07-13T04:23:42;3.30;;;2.10;;
58990;SDS011;44781;53.444;14.476;2023-07-13T04:26:09;5.00;;;2.80;;
58990;SDS011;44781;53.444;14.476;2023-07-13T04:28:36;4.40;;;2.30;;
58990;SDS011;44781;53.444;14.476;2023-07-13T04:31:03;5.70;;;2.50;;
58990;SDS011;44781;53.444;14.476;2023-07-13T04:33:30;4.60;;;2.60;;
58990;SDS011;44781;53.444;14.476;2023-07-13T04:35:57;6.50;;;3.00;;
58990;SDS011;44781;53.444;14.476;2023-07-13T04:38:27;6.40;;;2.70;;
58990;SDS011;44781;53.444;14.476;2023-07-13T04:41:00;4.40;;;2.50;;
58990;SDS011;44781;53.444;14.476;2023-07-13T04:43:29;5.40;;;2.30;;
58990;SDS011;44781;53.444;14.476;2023-07-13T04:45:57;5.90;;;2.50;;
58990;SDS011;44781;53.444;14.476;2023-07-13T04:48:28;5.60;;;2.60;;
58990;SDS011;44781;53.444;14.476;2023-07-13T04:50:58;4.40;;;2.30;;
58990;SDS011;44781;53.444;14.476;2023-07-13T04:53:25;5.70;;;2.60;;
58990;SDS011;44781;53.444;14.476;2023-07-13T04:55:53;4.90;;;2.70;;
58990;SDS011;44781;53.444;14.476;2023-07-13T04:58:20;5.70;;;2.40;;
58990;SDS011;44781;53.444;14.476;2023-07-13T05:00:48;5.00;;;2.00;;
58990;SDS011;44781;53.444;14.476;2023-07-13T05:03:15;4.30;;;1.90;;
58990;SDS011;44781;53.444;14.476;2023-07-13T05:05:42;4.90;;;2.70;;
58990;SDS011;44781;53.444;14.476;2023-07-13T05:08:09;4.50;;;2.40;;
58990;SDS011;44781;53.444;14.476;2023-07-13T05:10:36;5.70;;;2.80;;
58990;SDS011;44781;53.444;14.476;2023-07-13T05:13:06;4.50;;;2.60;;
58990;SDS011;44781;53.444;14.476;2023-07-13T05:15:33;4.80;;;2.40;;
58990;SDS011;44781;53.444;14.476;2023-07-13T05:18:00;6.00;;;2.40;;
58990;SDS011;44781;53.444;14.476;2023-07-13T05:20:27;5.00;;;2.20;;
58990;SDS011;44781;53.444;14.476;2023-07-13T05:22:54;4.60;;;2.30;;
58990;SDS011;44781;53.444;14.476;2023-07-13T05:25:21;5.80;;;1.90;;
58990;SDS011;44781;53.444;14.476;2023-07-13T05:27:48;3.90;;;1.80;;
58990;SDS011;44781;53.444;14.476;2023-07-13T05:30:15;5.20;;;2.00;;
58990;SDS011;44781;53.444;14.476;2023-07-13T05:32:42;4.50;;;1.90;;
58990;SDS011;44781;53.444;14.476;2023-07-13T05:35:09;3.90;;;2.00;;
58990;SDS011;44781;53.444;14.476;2023-07-13T05:37:37;5.40;;;2.10;;
58990;SDS011;44781;53.444;14.476;2023-07-13T05:40:04;4.90;;;1.90;;
58990;SDS011;44781;53.444;14.476;2023-07-13T05:42:31;8.20;;;3.60;;
58990;SDS011;44781;53.444;14.476;2023-07-13T05:44:58;8.90;;;3.40;;
58990;SDS011;44781;53.444;14.476;2023-07-13T05:47:25;5.60;;;2.40;;
58990;SDS011;44781;53.444;14.476;2023-07-13T05:49:52;5.20;;;2.50;;
58990;SDS011;44781;53.444;14.476;2023-07-13T05:52:22;7.10;;;2.50;;
58990;SDS011;44781;53.444;14.476;2023-07-13T05:54:49;5.50;;;2.70;;
58990;SDS011;44781;53.444;14.476;2023-07-13T05:57:16;5.20;;;2.10;;
58990;SDS011;44781;53.444;14.476;2023-07-13T05:59:43;4.90;;;1.60;;
58990;SDS011;44781;53.444;14.476;2023-07-13T06:02:10;7.50;;;2.30;;
58990;SDS011;44781;53.444;14.476;2023-07-13T06:04:37;8.00;;;2.30;;
58990;SDS011;44781;53.444;14.476;2023-07-13T06:07:04;3.10;;;1.60;;
58990;SDS011;44781;53.444;14.476;2023-07-13T06:09:31;7.00;;;2.00;;
58990;SDS011;44781;53.444;14.476;2023-07-13T06:11:58;4.50;;;1.60;;
58990;SDS011;44781;53.444;14.476;2023-07-13T06:14:25;3.20;;;1.50;;
58990;SDS011;44781;53.444;14.476;2023-07-13T06:16:51;4.20;;;1.50;;
58990;SDS011;44781;53.444;14.476;2023-07-13T06:19:18;3.40;;;1.50;;
58990;SDS011;44781;53.444;14.476;2023-07-13T06:21:45;4.40;;;1.60;;
58990;SDS011;44781;53.444;14.476;2023-07-13T06:24:12;3.10;;;1.40;;
58990;SDS011;44781;53.444;14.476;2023-07-13T06:26:39;4.20;;;1.70;;
58990;SDS011;44781;53.444;14.476;2023-07-13T06:29:06;4.00;;;1.50;;
58990;SDS011;44781;53.444;14.476;2023-07-13T06:31:33;2.90;;;1.50;;
58990;SDS011;44781;53.444;14.476;2023-07-13T06:33:59;3.30;;;1.40;;
58990;SDS011;44781;53.444;14.476;2023-07-13T06:36:26;3.10;;;1.20;;
58990;SDS011;44781;53.444;14.476;2023-07-13T06:38:53;5.40;;;2.10;;
58990;SDS011;44781;53.444;14.476;2023-07-13T06:41:20;4.10;;;1.50;;
58990;SDS011;44781;53.444;14.476;2023-07-13T06:43:48;7.60;;;1.60;;
58990;SDS011;44781;53.444;14.476;2023-07-13T06:46:18;4.40;;;1.10;;
58990;SDS011;44781;53.444;14.476;2023-07-13T06:48:46;3.50;;;1.10;;
58990;SDS011;44781;53.444;14.476;2023-07-13T06:51:13;4.20;;;1.00;;
58990;SDS011;44781;53.444;14.476;2023-07-13T06:53:40;4.20;;;1.00;;
58990;SDS011;44781;53.444;14.476;2023-07-13T06:56:09;4.10;;;1.30;;
58990;SDS011;44781;53.444;14.476;2023-07-13T06:58:37;4.60;;;1.10;;
58990;SDS011;44781;53.444;14.476;2023-07-13T07:01:04;2.20;;;1.30;;
58990;SDS011;44781;53.444;14.476;2023-07-13T07:03:32;2.40;;;1.10;;
58990;SDS011;44781;53.444;14.476;2023-07-13T07:06:06;3.50;;;1.20;;
58990;SDS011;44781;53.444;14.476;2023-07-13T07:08:40;3.40;;;0.90;;
58990;SDS011;44781;53.444;14.476;2023-07-13T07:11:18;2.40;;;0.90;;
58990;SDS011;44781;53.444;14.476;2023-07-13T07:13:48;2.90;;;1.30;;
58990;SDS011;44781;53.444;14.476;2023-07-13T07:16:17;3.30;;;1.20;;
58990;SDS011;44781;53.444;14.476;2023-07-13T07:18:46;3.00;;;1.00;;
58990;SDS011;44781;53.444;14.476;2023-07-13T07:21:13;3.40;;;1.70;;
58990;SDS011;44781;53.444;14.476;2023-07-13T07:23:41;3.00;;;1.10;;
58990;SDS011;44781;53.444;14.476;2023-07-13T07:26:08;3.10;;;1.20;;
58990;SDS011;44781;53.444;14.476;2023-07-13T07:28:36;2.30;;;1.10;;
58990;SDS011;44781;53.444;14.476;2023-07-13T07:31:03;1.50;;;0.70;;
58990;SDS011;44781;53.444;14.476;2023-07-13T07:33:32;2.10;;;1.00;;
58990;SDS011;44781;53.444;14.476;2023-07-13T07:36:00;2.00;;;0.90;;
58990;SDS011;44781;53.444;14.476;2023-07-13T07:38:27;5.10;;;1.00;;
58990;SDS011;44781;53.444;14.476;2023-07-13T07:40:55;2.60;;;0.90;;
58990;SDS011;44781;53.444;14.476;2023-07-13T07:43:22;4.10;;;0.90;;
58990;SDS011;44781;53.444;14.476;2023-07-13T07:45:49;2.90;;;0.90;;
58990;SDS011;44781;53.444;14.476;2023-07-13T07:48:16;2.90;;;0.90;;
58990;SDS011;44781;53.444;14.476;2023-07-13T07:50:43;2.70;;;1.00;;
58990;SDS011;44781;53.444;14.476;2023-07-13T07:53:10;1.90;;;1.00;;
58990;SDS011;44781;53.444;14.476;2023-07-13T07:55:37;3.10;;;0.90;;
58990;SDS011;44781;53.444;14.476;2023-07-13T07:58:04;4.00;;;1.00;;
58990;SDS011;44781;53.444;14.476;2023-07-13T08:00:32;1.90;;;0.90;;
58990;SDS011;44781;53.444;14.476;2023-07-13T08:02:59;3.10;;;0.80;;
58990;SDS011;44781;53.444;14.476;2023-07-13T08:05:26;1.40;;;0.90;;
58990;SDS011;44781;53.444;14.476;2023-07-13T08:07:53;3.50;;;1.00;;
58990;SDS011;44781;53.444;14.476;2023-07-13T08:10:20;2.50;;;0.90;;
58990;SDS011;44781;53.444;14.476;2023-07-13T08:12:47;2.20;;;0.80;;
58990;SDS011;44781;53.444;14.476;2023-07-13T08:15:15;2.30;;;0.90;;
58990;SDS011;44781;53.444;14.476;2023-07-13T08:17:43;2.20;;;0.80;;
58990;SDS011;44781;53.444;14.476;2023-07-13T08:20:10;2.40;;;0.70;;
58990;SDS011;44781;53.444;14.476;2023-07-13T08:22:37;3.70;;;1.00;;
58990;SDS011;44781;53.444;14.476;2023-07-13T08:25:04;1.00;;;0.80;;
58990;SDS011;44781;53.444;14.476;2023-07-13T08:27:31;1.90;;;0.90;;
58990;SDS011;44781;53.444;14.476;2023-07-13T08:29:59;3.10;;;1.10;;
58990;SDS011;44781;53.444;14.476;2023-07-13T08:32:26;3.10;;;1.00;;
58990;SDS011;44781;53.444;14.476;2023-07-13T08:34:53;3.70;;;1.40;;
58990;SDS011;44781;53.444;14.476;2023-07-13T08:37:20;2.00;;;0.80;;
58990;SDS011;44781;53.444;14.476;2023-07-13T08:39:47;3.40;;;0.90;;
58990;SDS011;44781;53.444;14.476;2023-07-13T08:45:13;2.20;;;0.90;;
58990;SDS011;44781;53.444;14.476;2023-07-13T08:50:35;2.60;;;0.90;;
58990;SDS011;44781;53.444;14.476;2023-07-13T08:53:18;2.10;;;0.70;;
58990;SDS011;44781;53.444;14.476;2023-07-13T08:55:46;4.10;;;0.80;;
58990;SDS011;44781;53.444;14.476;2023-07-13T08:58:17;2.40;;;0.90;;
58990;SDS011;44781;53.444;14.476;2023-07-13T09:03:47;3.30;;;0.90;;
58990;SDS011;44781;53.444;14.476;2023-07-13T09:06:28;3.20;;;0.90;;
58990;SDS011;44781;53.444;14.476;2023-07-13T09:09:06;4.40;;;1.20;;
58990;SDS011;44781;53.444;14.476;2023-07-13T09:11:46;3.80;;;0.90;;
58990;SDS011;44781;53.444;14.476;2023-07-13T09:17:19;1.30;;;0.70;;
58990;SDS011;44781;53.444;14.476;2023-07-13T09:20:02;2.10;;;0.90;;
58990;SDS011;44781;53.444;14.476;2023-07-13T09:22:36;2.70;;;0.80;;
58990;SDS011;44781;53.444;14.476;2023-07-13T09:25:11;4.10;;;0.80;;
58990;SDS011;44781;53.444;14.476;2023-07-13T09:27:53;7.10;;;1.10;;
58990;SDS011;44781;53.444;14.476;2023-07-13T09:30:30;3.00;;;0.90;;
58990;SDS011;44781;53.444;14.476;2023-07-13T09:33:04;2.60;;;1.00;;
58990;SDS011;44781;53.444;14.476;2023-07-13T09:35:31;2.10;;;0.90;;
58990;SDS011;44781;53.444;14.476;2023-07-13T09:38:02;1.70;;;0.70;;
58990;SDS011;44781;53.444;14.476;2023-07-13T09:43:20;2.70;;;1.10;;
58990;SDS011;44781;53.444;14.476;2023-07-13T09:45:48;1.50;;;0.80;;
58990;SDS011;44781;53.444;14.476;2023-07-13T09:48:16;2.90;;;0.90;;
58990;SDS011;44781;53.444;14.476;2023-07-13T09:50:44;2.70;;;1.30;;
58990;SDS011;44781;53.444;14.476;2023-07-13T09:53:16;2.30;;;1.00;;
58990;SDS011;44781;53.444;14.476;2023-07-13T09:55:45;1.70;;;0.80;;
58990;SDS011;44781;53.444;14.476;2023-07-13T09:58:15;3.40;;;1.00;;
58990;SDS011;44781;53.444;14.476;2023-07-13T10:00:56;3.40;;;1.00;;
58990;SDS011;44781;53.444;14.476;2023-07-13T10:03:32;4.20;;;1.60;;
58990;SDS011;44781;53.444;14.476;2023-07-13T10:06:14;2.70;;;1.00;;
58990;SDS011;44781;53.444;14.476;2023-07-13T10:08:44;3.10;;;1.00;;
58990;SDS011;44781;53.444;14.476;2023-07-13T10:13:53;1.70;;;0.90;;
58990;SDS011;44781;53.444;14.476;2023-07-13T10:16:29;2.80;;;1.20;;
58990;SDS011;44781;53.444;14.476;2023-07-13T10:19:03;2.00;;;0.80;;
58990;SDS011;44781;53.444;14.476;2023-07-13T10:21:39;1.60;;;0.90;;
58990;SDS011;44781;53.444;14.476;2023-07-13T10:24:22;4.20;;;1.00;;
58990;SDS011;44781;53.444;14.476;2023-07-13T10:27:00;3.40;;;1.20;;
58990;SDS011;44781;53.444;14.476;2023-07-13T10:29:34;2.70;;;0.90;;
58990;SDS011;44781;53.444;14.476;2023-07-13T10:32:23;3.00;;;1.20;;
58990;SDS011;44781;53.444;14.476;2023-07-13T10:34:51;4.30;;;1.20;;
58990;SDS011;44781;53.444;14.476;2023-07-13T10:37:20;3.90;;;1.00;;
58990;SDS011;44781;53.444;14.476;2023-07-13T10:39:51;2.60;;;0.90;;
58990;SDS011;44781;53.444;14.476;2023-07-13T10:42:37;3.40;;;1.00;;
58990;SDS011;44781;53.444;14.476;2023-07-13T10:45:18;3.20;;;1.10;;
58990;SDS011;44781;53.444;14.476;2023-07-13T10:47:47;3.50;;;1.10;;
58990;SDS011;44781;53.444;14.476;2023-07-13T10:50:22;6.30;;;1.20;;
58990;SDS011;44781;53.444;14.476;2023-07-13T10:52:52;2.80;;;1.10;;
58990;SDS011;44781;53.444;14.476;2023-07-13T10:55:35;2.00;;;1.20;;
58990;SDS011;44781;53.444;14.476;2023-07-13T11:01:00;2.60;;;1.10;;
58990;SDS011;44781;53.444;14.476;2023-07-13T11:09:19;2.40;;;0.90;;
58990;SDS011;44781;53.444;14.476;2023-07-13T11:12:25;3.30;;;1.10;;
58990;SDS011;44781;53.444;14.476;2023-07-13T11:19:54;4.20;;;1.00;;
58990;SDS011;44781;53.444;14.476;2023-07-13T11:30:40;2.10;;;0.80;;
58990;SDS011;44781;53.444;14.476;2023-07-13T11:33:16;3.60;;;1.00;;
58990;SDS011;44781;53.444;14.476;2023-07-13T11:38:34;1.60;;;0.90;;
58990;SDS011;44781;53.444;14.476;2023-07-13T11:41:06;2.90;;;1.00;;
58990;SDS011;44781;53.444;14.476;2023-07-13T11:43:33;2.50;;;1.10;;
58990;SDS011;44781;53.444;14.476;2023-07-13T11:49:00;2.00;;;0.90;;
58990;SDS011;44781;53.444;14.476;2023-07-13T11:51:34;2.70;;;1.20;;
58990;SDS011;44781;53.444;14.476;2023-07-13T11:54:03;4.40;;;1.00;;
58990;SDS011;44781;53.444;14.476;2023-07-13T11:56:34;3.50;;;1.10;;
58990;SDS011;44781;53.444;14.476;2023-07-13T11:59:07;3.50;;;1.10;;
58990;SDS011;44781;53.444;14.476;2023-07-13T12:01:42;2.70;;;1.10;;
58990;SDS011;44781;53.444;14.476;2023-07-13T12:04:19;2.30;;;0.80;;
58990;SDS011;44781;53.444;14.476;2023-07-13T12:07:36;2.10;;;1.00;;
58990;SDS011;44781;53.444;14.476;2023-07-13T12:09:44;3.30;;;1.20;;
58990;SDS011;44781;53.444;14.476;2023-07-13T12:12:12;2.70;;;0.90;;
58990;SDS011;44781;53.444;14.476;2023-07-13T12:14:41;2.90;;;1.00;;
58990;SDS011;44781;53.444;14.476;2023-07-13T12:17:26;3.10;;;0.90;;
58990;SDS011;44781;53.444;14.476;2023-07-13T12:19:53;2.80;;;1.10;;
58990;SDS011;44781;53.444;14.476;2023-07-13T12:22:20;3.30;;;1.00;;
58990;SDS011;44781;53.444;14.476;2023-07-13T12:24:49;2.90;;;1.00;;
58990;SDS011;44781;53.444;14.476;2023-07-13T12:27:22;2.70;;;1.20;;
58990;SDS011;44781;53.444;14.476;2023-07-13T12:32:20;6.30;;;1.50;;
58990;SDS011;44781;53.444;14.476;2023-07-13T12:34:53;5.10;;;1.30;;
58990;SDS011;44781;53.444;14.476;2023-07-13T12:37:22;4.30;;;1.20;;
58990;SDS011;44781;53.444;14.476;2023-07-13T12:39:49;4.20;;;1.40;;
58990;SDS011;44781;53.444;14.476;2023-07-13T12:44:47;3.50;;;1.30;;
58990;SDS011;44781;53.444;14.476;2023-07-13T12:47:14;4.00;;;1.30;;
58990;SDS011;44781;53.444;14.476;2023-07-13T12:49:43;4.30;;;1.20;;
58990;SDS011;44781;53.444;14.476;2023-07-13T12:52:19;4.40;;;1.20;;
58990;SDS011;44781;53.444;14.476;2023-07-13T12:54:58;2.80;;;1.10;;
58990;SDS011;44781;53.444;14.476;2023-07-13T12:57:30;5.10;;;1.10;;
58990;SDS011;44781;53.444;14.476;2023-07-13T12:59:57;2.70;;;1.00;;
58990;SDS011;44781;53.444;14.476;2023-07-13T13:02:31;3.40;;;1.10;;
58990;SDS011;44781;53.444;14.476;2023-07-13T13:05:03;2.20;;;1.10;;
58990;SDS011;44781;53.444;14.476;2023-07-13T13:07:31;2.60;;;1.00;;
58990;SDS011;44781;53.444;14.476;2023-07-13T13:09:57;2.60;;;1.20;;
58990;SDS011;44781;53.444;14.476;2023-07-13T13:12:28;3.30;;;1.10;;
58990;SDS011;44781;53.444;14.476;2023-07-13T13:14:55;3.30;;;1.20;;
58990;SDS011;44781;53.444;14.476;2023-07-13T13:17:27;4.00;;;1.40;;
58990;SDS011;44781;53.444;14.476;2023-07-13T13:19:57;3.40;;;1.00;;
58990;SDS011;44781;53.444;14.476;2023-07-13T13:22:23;3.30;;;1.20;;
58990;SDS011;44781;53.444;14.476;2023-07-13T13:24:50;3.60;;;1.30;;
58990;SDS011;44781;53.444;14.476;2023-07-13T13:27:18;3.50;;;1.10;;
58990;SDS011;44781;53.444;14.476;2023-07-13T13:29:49;3.70;;;1.60;;
58990;SDS011;44781;53.444;14.476;2023-07-13T13:32:19;5.70;;;1.20;;
58990;SDS011;44781;53.444;14.476;2023-07-13T13:34:46;2.50;;;1.10;;
58990;SDS011;44781;53.444;14.476;2023-07-13T13:37:20;2.50;;;1.10;;
58990;SDS011;44781;53.444;14.476;2023-07-13T13:39:49;3.70;;;1.20;;
58990;SDS011;44781;53.444;14.476;2023-07-13T13:42:18;4.50;;;1.20;;
58990;SDS011;44781;53.444;14.476;2023-07-13T13:44:47;2.80;;;1.20;;
58990;SDS011;44781;53.444;14.476;2023-07-13T13:47:33;2.10;;;1.20;;
58990;SDS011;44781;53.444;14.476;2023-07-13T13:50:16;4.00;;;1.50;;
58990;SDS011;44781;53.444;14.476;2023-07-13T13:52:46;2.60;;;1.10;;
58990;SDS011;44781;53.444;14.476;2023-07-13T13:57:42;4.50;;;1.20;;
58990;SDS011;44781;53.444;14.476;2023-07-13T14:00:10;3.30;;;1.20;;
58990;SDS011;44781;53.444;14.476;2023-07-13T14:02:47;3.40;;;1.20;;
58990;SDS011;44781;53.444;14.476;2023-07-13T14:05:18;5.10;;;1.20;;
58990;SDS011;44781;53.444;14.476;2023-07-13T14:07:59;3.40;;;1.70;;
58990;SDS011;44781;53.444;14.476;2023-07-13T14:10:26;2.30;;;1.10;;
58990;SDS011;44781;53.444;14.476;2023-07-13T14:12:54;3.70;;;1.10;;
58990;SDS011;44781;53.444;14.476;2023-07-13T14:15:25;3.80;;;1.40;;
58990;SDS011;44781;53.444;14.476;2023-07-13T14:17:54;5.30;;;1.40;;
58990;SDS011;44781;53.444;14.476;2023-07-13T14:20:22;2.10;;;1.10;;
58990;SDS011;44781;53.444;14.476;2023-07-13T14:22:50;4.90;;;1.50;;
58990;SDS011;44781;53.444;14.476;2023-07-13T14:25:19;3.10;;;1.30;;
58990;SDS011;44781;53.444;14.476;2023-07-13T14:27:48;2.40;;;1.10;;
58990;SDS011;44781;53.444;14.476;2023-07-13T14:30:20;4.20;;;1.50;;
58990;SDS011;44781;53.444;14.476;2023-07-13T14:32:48;4.20;;;1.50;;
58990;SDS011;44781;53.444;14.476;2023-07-13T14:35:17;3.30;;;1.00;;
58990;SDS011;44781;53.444;14.476;2023-07-13T14:37:48;3.70;;;1.10;;
58990;SDS011;44781;53.444;14.476;2023-07-13T14:40:17;3.60;;;1.30;;
58990;SDS011;44781;53.444;14.476;2023-07-13T14:42:51;3.00;;;1.40;;
58990;SDS011;44781;53.444;14.476;2023-07-13T14:45:19;2.20;;;1.10;;
58990;SDS011;44781;53.444;14.476;2023-07-13T14:47:47;8.10;;;1.40;;
58990;SDS011;44781;53.444;14.476;2023-07-13T14:50:15;4.30;;;1.10;;
58990;SDS011;44781;53.444;14.476;2023-07-13T14:52:44;3.80;;;1.30;;
58990;SDS011;44781;53.444;14.476;2023-07-13T14:55:18;5.30;;;1.60;;
58990;SDS011;44781;53.444;14.476;2023-07-13T14:57:46;4.30;;;1.20;;
58990;SDS011;44781;53.444;14.476;2023-07-13T15:00:17;3.50;;;1.10;;
58990;SDS011;44781;53.444;14.476;2023-07-13T15:02:48;5.90;;;1.20;;
58990;SDS011;44781;53.444;14.476;2023-07-13T15:05:18;2.60;;;1.00;;
58990;SDS011;44781;53.444;14.476;2023-07-13T15:07:49;4.50;;;1.30;;
58990;SDS011;44781;53.444;14.476;2023-07-13T15:10:18;3.10;;;1.10;;
58990;SDS011;44781;53.444;14.476;2023-07-13T15:12:50;5.00;;;1.30;;
58990;SDS011;44781;53.444;14.476;2023-07-13T15:15:24;3.40;;;1.20;;
58990;SDS011;44781;53.444;14.476;2023-07-13T15:22:53;4.80;;;1.40;;
58990;SDS011;44781;53.444;14.476;2023-07-13T15:25:21;4.40;;;1.20;;
58990;SDS011;44781;53.444;14.476;2023-07-13T15:27:53;4.20;;;1.20;;
58990;SDS011;44781;53.444;14.476;2023-07-13T15:30:22;3.00;;;1.20;;
58990;SDS011;44781;53.444;14.476;2023-07-13T15:33:13;3.60;;;1.20;;
58990;SDS011;44781;53.444;14.476;2023-07-13T15:35:49;5.20;;;1.50;;
58990;SDS011;44781;53.444;14.476;2023-07-13T15:38:19;4.50;;;1.40;;
58990;SDS011;44781;53.444;14.476;2023-07-13T15:40:49;4.40;;;1.30;;
58990;SDS011;44781;53.444;14.476;2023-07-13T15:43:17;3.70;;;1.50;;
58990;SDS011;44781;53.444;14.476;2023-07-13T15:45:46;2.40;;;1.10;;
58990;SDS011;44781;53.444;14.476;2023-07-13T15:48:21;4.30;;;1.30;;